Tumeremo, Venezuela
Current Conditions -  °F | °C
As of 7:00 PM on Tuesday 27 Jan 2015 (Local Time) from SYCJ Reporting Station
Broken Clouds Broken Clouds  
Wind Chill: 79°   Ceiling: 1700
Heat Index: 82°   Visibility: 6mi
Dew Point: 72°   Wind: 7mph
Humidity: 78%   Direction: 50°NE
Pressure: 29.91"   Gusts: NA
Location:  7.29°N, 61.48°W
Report Text: SYCJ 272300Z 05006KT 9999 BKN017 SCT038 26/22 Q1013 NOSIG
Loading
Personal Weather Stations






























Interactive Weather Map New forecast layout! Learn more

10-Day Weather Forecast

Advertisements
Track Severe Weather on mobile